上海/浦東 の空港の天気 - METARとTAF

上海浦東国際空港 ( ZSPD / PVG ) - 中国 上海市
飛行場実況気象(Metar)
観測時間08/23 00:30 CST (08/22 16:30 UTC)
風向・風速東南東 2m/s
視程10km以上
天気現象
なし
気温27℃
湿度89%
気圧1010hPa
METARZSPD 221630Z 12002MPS CAVOK 27/25 Q1010 NOSIG
過去の天気等 Google飛行場航空写真 Wunderground天気予報

過去48時間のMETAR

飛行場予報(TAF)
発表時間: 8/22 17:19 CST (8/22 09:19 UTC)
予報対象時間: 22日20時 CST ~ 23日20時 CST
風向・風速東 3m/s
視程6000m
全天の4割程度の雲 雲底高度 460m
23日6時 CST ~ 23日7時 CST に徐々に
風向・風速東北東 4m/s
TAF ZSPD 220919Z 2212/2312 10003MPS 6000 SCT015 TX32/2306Z TN25/2220Z
BECMG 2222/2223 07004MPS